Time;durP1;ratioP1;P1;durP2;ratioP2;P2;SDS_P1;SDS_P2;PMS_P1;PMS_P2;Temp;Humidity;BMP_temperature;BMP_pressure;BME280_temperature;BME280_humidity;BME280_pressure;Samples;Min_cycle;Max_cycle;Signal;HPM_P1;HPM_P2
2023/07/22 00:00:24;;;;;;;3.20;2.70;;;;;17.30;96581.00;;;;4994909;28;20225;-85
2023/07/22 00:03:13;;;;;;;5.87;2.90;;;;;17.30;96571.00;;;;4987931;28;20206;-86
2023/07/22 00:06:08;;;;;;;12.33;3.20;;;;;17.20;96580.00;;;;4990287;28;20229;-85
2023/07/22 00:08:57;;;;;;;4.10;2.63;;;;;17.10;96583.00;;;;4995522;28;20719;-86
2023/07/22 00:11:46;;;;;;;4.50;2.30;;;;;16.90;96572.00;;;;4989539;28;20207;-86
2023/07/22 00:14:39;;;;;;;6.77;2.53;;;;;16.80;96585.00;;;;4988638;28;20294;-86
2023/07/22 00:17:29;;;;;;;3.13;2.60;;;;;16.80;96581.00;;;;4989358;28;20213;-85
2023/07/22 00:20:19;;;;;;;4.63;2.80;;;;;16.80;96593.00;;;;4987613;28;20249;-86
2023/07/22 00:23:10;;;;;;;3.43;2.70;;;;;16.70;96595.00;;;;4993923;28;20683;-85
2023/07/22 00:25:59;;;;;;;2.30;2.07;;;;;16.80;96590.00;;;;4988592;28;20226;-86
2023/07/22 00:28:48;;;;;;;3.60;2.33;;;;;16.70;96599.00;;;;4991987;28;20202;-85
2023/07/22 00:31:37;;;;;;;5.50;2.33;;;;;16.80;96599.00;;;;5000482;28;20206;-85
2023/07/22 00:34:27;;;;;;;2.40;2.20;;;;;16.80;96590.00;;;;4991330;28;20207;-84
2023/07/22 00:37:16;;;;;;;2.97;2.03;;;;;16.80;96590.00;;;;4992667;28;20214;-84
2023/07/22 00:40:11;;;;;;;2.93;2.20;;;;;16.50;96587.00;;;;4986798;28;20214;-85
2023/07/22 00:43:00;;;;;;;3.30;2.23;;;;;16.40;96598.00;;;;4984274;28;20468;-84
2023/07/22 00:45:50;;;;;;;3.13;2.43;;;;;16.20;96602.00;;;;4989798;28;20219;-84
2023/07/22 00:48:40;;;;;;;3.43;2.87;;;;;16.10;96614.00;;;;4995788;28;20214;-85
2023/07/22 00:51:29;;;;;;;4.53;2.00;;;;;16.40;96619.00;;;;4995457;28;20222;-84
2023/07/22 00:54:18;;;;;;;5.50;2.50;;;;;16.40;96602.00;;;;4996705;28;20205;-85
2023/07/22 00:57:08;;;;;;;4.43;2.33;;;;;16.50;96608.00;;;;4996230;28;20706;-85
2023/07/22 00:59:58;;;;;;;3.72;2.60;;;;;16.40;96603.00;;;;4988745;28;20399;-85
2023/07/22 01:02:47;;;;;;;3.10;2.30;;;;;16.10;96605.00;;;;4988987;28;20202;-84
2023/07/22 01:05:36;;;;;;;2.83;2.13;;;;;16.00;96607.00;;;;4992471;28;20222;-84
2023/07/22 01:08:25;;;;;;;3.37;2.00;;;;;15.40;96614.00;;;;4989087;28;20206;-85
2023/07/22 01:11:15;;;;;;;5.17;2.67;;;;;15.50;96618.00;;;;5002441;28;20555;-84
2023/07/22 01:14:05;;;;;;;6.67;3.40;;;;;15.60;96614.00;;;;4990670;28;20566;-85
2023/07/22 01:16:54;;;;;;;3.17;2.70;;;;;15.80;96623.00;;;;4996061;28;20206;-85
2023/07/22 01:19:43;;;;;;;2.80;2.50;;;;;16.00;96617.00;;;;4988088;28;20595;-84
2023/07/22 01:22:34;;;;;;;4.50;2.87;;;;;16.00;96620.00;;;;4988275;28;20227;-84
2023/07/22 01:25:25;;;;;;;4.17;2.27;;;;;16.10;96631.00;;;;4986524;28;20248;-85
2023/07/22 01:28:15;;;;;;;2.90;2.60;;;;;16.20;96631.00;;;;4990307;28;20738;-84
2023/07/22 01:31:05;;;;;;;3.03;2.13;;;;;16.00;96628.00;;;;4992208;28;20201;-84
2023/07/22 01:33:54;;;;;;;2.80;1.97;;;;;16.00;96624.00;;;;4991359;28;20253;-85
2023/07/22 01:36:43;;;;;;;3.03;2.20;;;;;15.90;96627.00;;;;4988421;28;20230;-84
2023/07/22 01:39:32;;;;;;;2.80;2.17;;;;;15.90;96642.00;;;;4988651;28;20874;-85
2023/07/22 01:42:23;;;;;;;4.70;2.40;;;;;15.60;96630.00;;;;4989211;28;20238;-85
2023/07/22 01:45:12;;;;;;;8.27;2.50;;;;;15.30;96640.00;;;;4993661;28;20222;-84
2023/07/22 01:48:01;;;;;;;2.93;2.27;;;;;14.90;96646.00;;;;4985487;28;20213;-84
2023/07/22 01:50:50;;;;;;;2.93;2.03;;;;;15.10;96646.00;;;;4988415;28;20195;-84
2023/07/22 01:53:40;;;;;;;3.83;2.20;;;;;15.10;96650.00;;;;4988103;28;20203;-84
2023/07/22 01:56:29;;;;;;;4.67;2.73;;;;;15.30;96654.00;;;;4997382;28;20600;-86
2023/07/22 01:59:19;;;;;;;2.83;2.43;;;;;15.50;96665.00;;;;4986198;28;20229;-86
2023/07/22 02:02:08;;;;;;;4.73;2.77;;;;;15.70;96667.00;;;;4994199;28;20238;-86
2023/07/22 02:04:58;;;;;;;5.93;2.50;;;;;15.80;96678.00;;;;4985583;28;20606;-86
2023/07/22 02:07:47;;;;;;;2.73;2.40;;;;;15.90;96670.00;;;;4993868;28;20205;-85
2023/07/22 02:10:36;;;;;;;3.33;2.27;;;;;15.80;96679.00;;;;4989648;28;20309;-85
2023/07/22 02:13:25;;;;;;;4.87;2.80;;;;;15.70;96671.00;;;;4992361;28;20710;-84
2023/07/22 02:16:16;;;;;;;4.97;2.30;;;;;15.80;96677.00;;;;4990645;28;20230;-85
2023/07/22 02:19:06;;;;;;;4.50;2.23;;;;;15.80;96669.00;;;;4989840;28;20265;-84
2023/07/22 02:21:55;;;;;;;4.87;2.67;;;;;15.60;96664.00;;;;4988239;28;20218;-83
2023/07/22 02:24:44;;;;;;;8.17;2.47;;;;;15.50;96672.00;;;;5001289;28;20224;-84
2023/07/22 02:27:34;;;;;;;4.37;2.50;;;;;15.50;96666.00;;;;4995705;28;20237;-84
2023/07/22 02:30:23;;;;;;;5.03;2.60;;;;;15.60;96668.00;;;;5001301;28;20214;-85
2023/07/22 02:33:14;;;;;;;4.40;1.97;;;;;15.60;96672.00;;;;4998799;28;20211;-85
2023/07/22 02:36:03;;;;;;;2.80;2.17;;;;;15.80;96679.00;;;;4997254;28;20229;-85
2023/07/22 02:38:52;;;;;;;5.67;2.40;;;;;16.00;96672.00;;;;4990399;28;20215;-84
2023/07/22 02:41:41;;;;;;;6.33;3.23;;;;;16.00;96680.00;;;;4993979;28;20718;-84
2023/07/22 02:44:30;;;;;;;3.37;2.77;;;;;15.70;96680.00;;;;4997730;28;20217;-84
2023/07/22 02:47:19;;;;;;;4.67;2.10;;;;;15.50;96682.00;;;;5000017;28;20214;-85
2023/07/22 02:50:10;;;;;;;4.97;2.30;;;;;15.80;96683.00;;;;4994412;28;20214;-85
2023/07/22 02:53:00;;;;;;;4.17;2.70;;;;;15.90;96679.00;;;;4992826;28;20203;-86
2023/07/22 02:55:49;;;;;;;4.40;2.37;;;;;15.80;96681.00;;;;4997216;28;20230;-85
2023/07/22 02:58:38;;;;;;;3.03;2.13;;;;;15.50;96681.00;;;;4990358;28;20201;-84
2023/07/22 03:01:27;;;;;;;3.20;2.37;;;;;15.00;96688.00;;;;4995825;28;20239;-85
2023/07/22 03:04:16;;;;;;;6.13;2.53;;;;;14.80;96690.00;;;;4990912;28;20207;-84
2023/07/22 03:07:07;;;;;;;4.50;2.80;;;;;14.80;96693.00;;;;4991957;28;20214;-84
2023/07/22 03:09:56;;;;;;;4.87;2.57;;;;;15.00;96692.00;;;;4988874;28;20214;-84
2023/07/22 03:12:45;;;;;;;3.33;2.27;;;;;14.80;96694.00;;;;4995465;28;20206;-84
2023/07/22 03:15:34;;;;;;;5.20;2.90;;;;;14.80;96691.00;;;;4999236;28;20226;-85
2023/07/22 03:18:23;;;;;;;3.17;2.43;;;;;14.90;96696.00;;;;4999335;28;20210;-85
2023/07/22 03:21:12;;;;;;;3.07;2.30;;;;;14.90;96701.00;;;;4990357;28;20586;-86
2023/07/22 03:24:03;;;;;;;5.77;2.43;;;;;15.00;96700.00;;;;4992894;28;20586;-86
2023/07/22 03:26:52;;;;;;;8.07;2.53;;;;;15.20;96702.00;;;;4997583;28;20218;-86
2023/07/22 03:29:42;;;;;;;5.27;2.70;;;;;15.20;96702.00;;;;4990703;28;20213;-86
2023/07/22 03:32:31;;;;;;;3.90;2.47;;;;;15.40;96702.00;;;;4996432;28;20202;-86
2023/07/22 03:35:21;;;;;;;3.33;2.17;;;;;15.50;96706.00;;;;5002013;28;20237;-86
2023/07/22 03:38:10;;;;;;;5.33;2.10;;;;;15.60;96701.00;;;;4989231;28;20225;-87
2023/07/22 03:41:00;;;;;;;3.47;3.13;;;;;15.50;96712.00;;;;4990889;28;20253;-87
2023/07/22 03:43:49;;;;;;;5.43;2.83;;;;;15.60;96709.00;;;;4997924;28;20214;-85
2023/07/22 03:46:38;;;;;;;4.77;2.33;;;;;15.70;96711.00;;;;4991214;28;20226;-86
2023/07/22 03:49:27;;;;;;;8.40;2.50;;;;;15.40;96720.00;;;;4994093;28;20198;-85
2023/07/22 03:52:18;;;;;;;7.43;2.53;;;;;15.50;96725.00;;;;4998783;28;20202;-85
2023/07/22 03:55:08;;;;;;;2.17;1.83;;;;;15.70;96727.00;;;;4995925;28;20230;-86
2023/07/22 03:57:59;;;;;;;4.23;2.57;;;;;15.70;96725.00;;;;4986298;28;20254;-84
2023/07/22 04:00:50;;;;;;;8.47;3.57;;;;;15.60;96725.00;;;;4990512;28;20207;-85
2023/07/22 04:03:39;;;;;;;3.20;2.47;;;;;15.60;96725.00;;;;4998890;28;20234;-85
2023/07/22 04:06:28;;;;;;;3.73;2.80;;;;;15.70;96728.00;;;;4993526;28;20223;-86
2023/07/22 04:09:18;;;;;;;3.17;2.23;;;;;15.80;96728.00;;;;4996986;28;20210;-87
2023/07/22 04:12:08;;;;;;;3.43;2.77;;;;;15.70;96741.00;;;;5000064;28;20206;-86
2023/07/22 04:14:59;;;;;;;4.83;2.43;;;;;15.90;96734.00;;;;4987933;28;20223;-86
2023/07/22 04:17:48;;;;;;;7.00;2.37;;;;;15.90;96743.00;;;;4983114;28;20206;-86
2023/07/22 04:20:37;;;;;;;5.00;2.60;;;;;15.80;96742.00;;;;4990093;28;20209;-85
2023/07/22 04:23:26;;;;;;;2.93;2.30;;;;;16.20;96739.00;;;;4995190;28;20444;-85
2023/07/22 04:26:15;;;;;;;3.80;2.87;;;;;16.20;96735.00;;;;4989540;28;20234;-86
2023/07/22 04:29:04;;;;;;;3.33;2.67;;;;;16.00;96749.00;;;;4985479;28;20698;-86
2023/07/22 04:32:03;;;;;;;3.50;2.40;;;;;16.30;96751.00;;;;4989956;28;20222;-85
2023/07/22 04:34:52;;;;;;;2.50;2.30;;;;;16.50;96760.00;;;;4989123;28;20222;-86
2023/07/22 04:37:41;;;;;;;4.97;2.30;;;;;16.40;96757.00;;;;4987297;28;20213;-85
2023/07/22 04:40:31;;;;;;;3.07;2.10;;;;;16.40;96760.00;;;;4988990;28;20675;-86
2023/07/22 04:43:20;;;;;;;3.03;2.13;;;;;16.40;96763.00;;;;4989196;28;20234;-86
2023/07/22 04:46:10;;;;;;;2.10;1.90;;;;;16.50;96763.00;;;;4988548;28;20227;-86
2023/07/22 04:49:01;;;;;;;2.73;2.43;;;;;16.50;96762.00;;;;4982113;28;20222;-86
2023/07/22 04:51:50;;;;;;;4.93;2.23;;;;;16.50;96759.00;;;;4988005;28;20203;-85
2023/07/22 04:54:39;;;;;;;4.50;2.80;;;;;16.60;96765.00;;;;4985935;28;20285;-85
2023/07/22 04:57:28;;;;;;;5.40;2.33;;;;;16.60;96765.00;;;;4987849;28;20202;-86
2023/07/22 05:00:19;;;;;;;4.20;2.87;;;;;16.40;96758.00;;;;4986244;28;20868;-86
2023/07/22 05:03:08;;;;;;;3.77;2.70;;;;;16.60;96764.00;;;;4986737;28;20227;-86
2023/07/22 05:05:59;;;;;;;4.53;2.63;;;;;16.50;96777.00;;;;4987132;28;20759;-86
2023/07/22 05:08:48;;;;;;;4.27;2.60;;;;;16.50;96768.00;;;;4988845;28;20202;-86
2023/07/22 05:11:37;;;;;;;5.93;2.73;;;;;16.90;96774.00;;;;4986026;28;20206;-86
2023/07/22 05:14:26;;;;;;;7.17;2.77;;;;;16.90;96785.00;;;;4988160;28;20191;-85
2023/07/22 05:17:15;;;;;;;3.80;2.80;;;;;16.60;96786.00;;;;4985000;28;20207;-86
2023/07/22 05:20:06;;;;;;;3.33;2.70;;;;;16.50;96783.00;;;;4987712;28;20237;-86
2023/07/22 05:22:57;;;;;;;4.47;2.83;;;;;16.80;96785.00;;;;4984917;28;20692;-86
2023/07/22 05:25:51;;;;;;;2.67;1.93;;;;;17.10;96783.00;;;;4988709;28;20230;-86
2023/07/22 05:28:40;;;;;;;4.97;2.90;;;;;16.90;96787.00;;;;4988789;28;20700;-85
2023/07/22 05:31:29;;;;;;;2.27;2.07;;;;;17.00;96786.00;;;;4981778;28;20203;-85
2023/07/22 05:34:18;;;;;;;4.07;2.80;;;;;16.80;96789.00;;;;4986226;28;20206;-85
2023/07/22 05:37:07;;;;;;;3.17;2.73;;;;;16.80;96797.00;;;;4988327;28;20209;-86
2023/07/22 05:39:58;;;;;;;3.50;2.57;;;;;16.90;96796.00;;;;4987839;28;20211;-85
2023/07/22 05:42:47;;;;;;;3.03;2.30;;;;;17.10;96796.00;;;;4985837;28;20587;-86
2023/07/22 05:45:36;;;;;;;2.50;2.30;;;;;17.20;96792.00;;;;4984232;28;20341;-86
2023/07/22 05:48:25;;;;;;;4.30;3.10;;;;;17.10;96803.00;;;;4985801;28;20630;-85
2023/07/22 05:51:15;;;;;;;3.63;2.70;;;;;16.90;96803.00;;;;4983420;28;20229;-85
2023/07/22 05:54:04;;;;;;;3.20;2.70;;;;;16.70;96800.00;;;;4982928;28;20202;-85
2023/07/22 05:56:54;;;;;;;3.60;2.47;;;;;16.90;96801.00;;;;4984375;28;20237;-85
2023/07/22 05:59:43;;;;;;;3.57;2.93;;;;;17.10;96809.00;;;;4988262;28;20206;-85
2023/07/22 06:02:32;;;;;;;4.67;3.10;;;;;17.10;96811.00;;;;4993867;28;20217;-85
2023/07/22 06:05:22;;;;;;;3.83;2.73;;;;;17.30;96812.00;;;;4986500;28;20233;-85
2023/07/22 06:08:11;;;;;;;2.47;2.27;;;;;17.60;96802.00;;;;4986502;28;20210;-85
2023/07/22 06:11:00;;;;;;;3.07;2.67;;;;;17.60;96807.00;;;;4989923;28;20210;-83
2023/07/22 06:13:50;;;;;;;2.77;2.43;;;;;17.50;96802.00;;;;4984852;28;20207;-85
2023/07/22 06:16:39;;;;;;;2.37;2.17;;;;;17.80;96815.00;;;;4988410;28;20590;-84
2023/07/22 06:19:29;;;;;;;4.93;2.60;;;;;17.70;96803.00;;;;4989746;28;20273;-85
2023/07/22 06:22:18;;;;;;;3.87;2.60;;;;;17.80;96809.00;;;;5000563;28;20199;-85
2023/07/22 06:25:07;;;;;;;6.87;2.90;;;;;17.80;96806.00;;;;4988811;28;20225;-85
2023/07/22 06:27:56;;;;;;;4.07;2.80;;;;;17.70;96807.00;;;;4990683;28;20575;-85
2023/07/22 06:30:47;;;;;;;6.50;2.70;;;;;18.10;96810.00;;;;4984447;28;20212;-85
2023/07/22 06:33:36;;;;;;;3.83;2.60;;;;;18.10;96810.00;;;;4989700;28;20210;-85
2023/07/22 06:36:26;;;;;;;3.33;3.03;;;;;18.40;96809.00;;;;4990838;28;20230;-84
2023/07/22 06:39:15;;;;;;;3.80;2.03;;;;;18.60;96810.00;;;;4995159;28;20272;-84
2023/07/22 06:42:04;;;;;;;2.87;2.63;;;;;18.70;96816.00;;;;4993852;28;20214;-85
2023/07/22 06:44:53;;;;;;;3.57;2.70;;;;;18.80;96820.00;;;;4987243;28;20736;-85
2023/07/22 06:47:44;;;;;;;3.10;2.33;;;;;19.30;96823.00;;;;4988804;28;20203;-85
2023/07/22 06:50:33;;;;;;;3.63;2.77;;;;;19.30;96827.00;;;;4998381;28;20214;-85
2023/07/22 06:53:22;;;;;;;7.40;3.10;;;;;19.60;96821.00;;;;4994321;28;20203;-85
2023/07/22 06:56:11;;;;;;;3.60;2.47;;;;;19.20;96825.00;;;;4985439;28;20233;-85
2023/07/22 06:59:00;;;;;;;5.20;2.90;;;;;19.60;96830.00;;;;4996450;28;20239;-86
2023/07/22 07:01:49;;;;;;;4.17;3.00;;;;;19.80;96830.00;;;;4988858;28;20203;-85
2023/07/22 07:04:40;;;;;;;5.43;3.17;;;;;20.10;96817.00;;;;4996455;28;20223;-86
2023/07/22 07:07:29;;;;;;;5.33;3.37;;;;;20.50;96816.00;;;;4994698;28;20207;-85
2023/07/22 07:10:18;;;;;;;6.57;4.30;;;;;20.80;96830.00;;;;4996543;28;20217;-85
2023/07/22 07:13:09;;;;;;;6.10;4.30;;;;;20.40;96829.00;;;;4994781;28;20236;-85
2023/07/22 07:15:58;;;;;;;4.47;3.63;;;;;20.70;96822.00;;;;4993285;28;20272;-86
2023/07/22 07:18:47;;;;;;;5.93;4.10;;;;;21.20;96832.00;;;;4989611;28;20206;-85
2023/07/22 07:21:37;;;;;;;4.73;3.87;;;;;20.70;96847.00;;;;4990539;28;20210;-85
2023/07/22 07:24:27;;;;;;;5.73;3.23;;;;;20.60;96844.00;;;;4992484;28;20231;-85
2023/07/22 07:27:16;;;;;;;5.37;3.93;;;;;21.20;96852.00;;;;4991971;28;20214;-85
2023/07/22 07:30:07;;;;;;;6.37;4.00;;;;;20.90;96846.00;;;;4991656;28;20268;-85
2023/07/22 07:32:57;;;;;;;5.07;3.17;;;;;21.00;96854.00;;;;4995042;28;20210;-84
2023/07/22 07:35:47;;;;;;;3.93;3.07;;;;;21.50;96859.00;;;;4989652;28;20218;-85
2023/07/22 07:38:38;;;;;;;6.40;4.20;;;;;21.70;96860.00;;;;4991456;28;20228;-85
2023/07/22 07:41:27;;;;;;;6.33;4.23;;;;;21.90;96854.00;;;;5001191;28;20202;-85
2023/07/22 07:44:16;;;;;;;6.53;3.23;;;;;22.20;96862.00;;;;4991938;28;20299;-86
2023/07/22 07:47:06;;;;;;;12.73;3.80;;;;;22.70;96859.00;;;;4987222;28;20207;-84
2023/07/22 07:49:55;;;;;;;4.10;3.50;;;;;22.90;96863.00;;;;4990898;28;20199;-85
2023/07/22 07:52:44;;;;;;;5.47;4.20;;;;;23.00;96855.00;;;;4992767;28;20206;-85
2023/07/22 07:55:34;;;;;;;4.07;3.27;;;;;23.10;96869.00;;;;5000384;28;20221;-85
2023/07/22 07:58:23;;;;;;;5.43;3.10;;;;;23.50;96869.00;;;;4990722;28;20695;-84
2023/07/22 08:01:13;;;;;;;6.43;3.80;;;;;23.80;96872.00;;;;4989910;28;20725;-86
2023/07/22 08:04:02;;;;;;;7.07;3.80;;;;;24.00;96876.00;;;;4986224;28;20229;-86
2023/07/22 08:06:51;;;;;;;3.87;3.03;;;;;24.10;96881.00;;;;4985308;28;20230;-86
2023/07/22 08:09:40;;;;;;;5.47;2.87;;;;;24.30;96873.00;;;;4983296;28;20234;-85
2023/07/22 08:12:31;;;;;;;5.40;2.73;;;;;24.50;96879.00;;;;4982215;28;20207;-86
2023/07/22 08:15:23;;;;;;;4.90;2.80;;;;;25.00;96869.00;;;;4991208;28;20218;-86
2023/07/22 08:18:12;;;;;;;5.80;3.47;;;;;25.20;96869.00;;;;4996046;28;20207;-86
2023/07/22 08:21:06;;;;;;;3.57;2.70;;;;;25.60;96879.00;;;;4986893;28;20590;-86
2023/07/22 08:24:11;;;;;;;3.47;3.17;;;;;25.50;96881.00;;;;4985105;28;20731;-86
2023/07/22 08:27:15;;;;;;;6.30;3.60;;;;;26.00;96892.00;;;;4989875;28;20203;-87
2023/07/22 08:30:11;;;;;;;4.65;3.50;;;;;25.80;96886.00;;;;4989157;28;20394;-87
2023/07/22 08:33:00;;;;;;;4.80;3.05;;;;;25.70;96904.00;;;;4983008;28;20410;-86
2023/07/22 08:39:16;;;;;;;4.17;2.83;;;;;26.10;96906.00;;;;4986125;28;20584;-87
2023/07/22 08:42:11;;;;;;;3.00;2.37;;;;;26.00;96906.00;;;;4985483;28;20819;-87
2023/07/22 08:53:50;;;;;;;2.97;2.50;;;;;26.50;96900.00;;;;4921636;29;20214;-87
2023/07/22 08:56:43;;;;;;;3.83;2.97;;;;;26.30;96894.00;;;;4917771;29;20235;-86
2023/07/22 08:59:32;;;;;;;5.23;2.70;;;;;26.40;96910.00;;;;4932947;28;20304;-87
2023/07/22 09:02:22;;;;;;;4.10;2.70;;;;;26.50;96915.00;;;;4984275;28;20696;-88
2023/07/22 09:05:13;;;;;;;3.77;2.03;;;;;26.30;96910.00;;;;4984516;28;20244;-87
2023/07/22 09:08:04;;;;;;;3.27;2.63;;;;;26.60;96909.00;;;;4987517;28;20210;-87
2023/07/22 09:10:53;;;;;;;3.57;2.80;;;;;27.10;96915.00;;;;4988394;28;20250;-87
2023/07/22 09:13:45;;;;;;;5.13;2.50;;;;;26.80;96916.00;;;;4988283;28;20204;-87
2023/07/22 09:16:34;;;;;;;3.70;3.27;;;;;26.70;96919.00;;;;4987042;28;20228;-87
2023/07/22 09:19:23;;;;;;;3.50;2.60;;;;;26.50;96914.00;;;;4988496;28;20675;-86
2023/07/22 09:22:14;;;;;;;5.40;3.03;;;;;25.80;96898.00;;;;4984979;28;20571;-88
2023/07/22 09:25:40;;;;;;;3.53;2.60;;;;;26.90;96910.00;;;;4988816;28;20246;-88
2023/07/22 09:28:34;;;;;;;5.47;2.90;;;;;26.60;96910.00;;;;4986066;28;20208;-87
2023/07/22 09:31:25;;;;;;;3.97;2.77;;;;;27.00;96919.00;;;;4988192;28;20218;-87
2023/07/22 09:34:14;;;;;;;3.00;2.70;;;;;26.80;96919.00;;;;4986791;28;20208;-88
2023/07/22 09:37:07;;;;;;;3.87;3.07;;;;;26.90;96917.00;;;;4987270;28;20214;-88
2023/07/22 09:40:00;;;;;;;4.37;2.83;;;;;27.10;96910.00;;;;4984560;28;20209;-87
2023/07/22 09:42:50;;;;;;;5.30;2.60;;;;;27.90;96887.00;;;;4990091;28;20208;-88
2023/07/22 09:45:42;;;;;;;4.93;3.10;;;;;28.20;96907.00;;;;4991375;28;20241;-88
2023/07/22 09:48:31;;;;;;;6.80;3.03;;;;;27.70;96911.00;;;;4989170;28;20739;-87
2023/07/22 09:51:21;;;;;;;2.77;2.30;;;;;28.00;96907.00;;;;4988564;28;20200;-88
2023/07/22 09:54:10;;;;;;;3.10;2.57;;;;;28.10;96902.00;;;;4994806;28;20359;-88
2023/07/22 09:57:01;;;;;;;4.60;3.17;;;;;28.10;96908.00;;;;4982919;28;20201;-88
2023/07/22 09:59:51;;;;;;;3.87;2.60;;;;;28.60;96899.00;;;;4986914;28;20200;-89
2023/07/22 10:02:42;;;;;;;3.80;2.63;;;;;28.90;96898.00;;;;4988166;28;20211;-89
2023/07/22 10:05:34;;;;;;;3.10;2.47;;;;;28.60;96915.00;;;;4997564;28;20239;-88
2023/07/22 10:08:25;;;;;;;3.77;2.97;;;;;28.90;96899.00;;;;4986628;28;20246;-88
2023/07/22 10:11:15;;;;;;;4.47;2.73;;;;;28.80;96901.00;;;;4990090;28;20205;-89
2023/07/22 10:14:07;;;;;;;4.37;2.47;;;;;28.80;96896.00;;;;4994210;28;20216;-89
2023/07/22 10:16:56;;;;;;;6.20;3.03;;;;;28.30;96897.00;;;;4992573;28;20686;-88
2023/07/22 10:19:55;;;;;;;4.00;3.03;;;;;28.20;96886.00;;;;4993697;28;20201;-89
2023/07/22 10:22:45;;;;;;;4.23;3.40;;;;;28.30;96888.00;;;;4995597;28;20213;-89
2023/07/22 10:25:37;;;;;;;7.47;2.90;;;;;27.90;96887.00;;;;4989475;28;20235;-89
2023/07/22 10:28:27;;;;;;;4.53;2.80;;;;;27.20;96895.00;;;;4991827;28;20261;-88
2023/07/22 10:31:19;;;;;;;3.43;2.57;;;;;27.60;96891.00;;;;4987870;28;20212;-88
2023/07/22 10:34:08;;;;;;;4.00;2.57;;;;;28.20;96903.00;;;;4983888;28;20208;-89
2023/07/22 10:37:01;;;;;;;3.87;3.30;;;;;28.10;96895.00;;;;4990583;28;20220;-89
2023/07/22 10:39:53;;;;;;;3.73;3.03;;;;;28.50;96900.00;;;;4997182;28;20215;-89
2023/07/22 10:42:54;;;;;;;3.43;2.60;;;;;28.50;96878.00;;;;4989819;28;20673;-90
2023/07/22 10:45:44;;;;;;;5.17;3.17;;;;;28.80;96882.00;;;;4995076;28;20241;-88
2023/07/22 10:48:38;;;;;;;5.10;2.80;;;;;28.90;96887.00;;;;4994075;28;20214;-88
2023/07/22 10:51:37;;;;;;;3.30;3.00;;;;;28.90;96888.00;;;;4987981;28;20719;-89
2023/07/22 10:54:36;;;;;;;4.33;3.73;;;;;29.00;96894.00;;;;4988151;28;20708;-87
2023/07/22 10:57:26;;;;;;;5.33;3.23;;;;;29.30;96872.00;;;;4991427;28;20297;-88
2023/07/22 11:00:29;;;;;;;2.83;2.23;;;;;29.60;96878.00;;;;4990222;28;20205;-89
2023/07/22 11:03:21;;;;;;;6.20;3.67;;;;;29.90;96895.00;;;;4999466;28;20212;-89
2023/07/22 11:06:21;;;;;;;5.93;2.80;;;;;29.50;96890.00;;;;4993920;28;20230;-89
2023/07/22 11:09:44;;;;;;;3.30;2.77;;;;;29.30;96878.00;;;;4992208;28;20283;-90
2023/07/22 11:12:40;;;;;;;3.50;3.20;;;;;29.10;96869.00;;;;4995858;28;20280;-89
2023/07/22 11:15:31;;;;;;;4.53;3.43;;;;;29.50;96871.00;;;;5000340;28;20232;-89
2023/07/22 11:18:20;;;;;;;3.70;2.57;;;;;29.60;96872.00;;;;4992146;28;20204;-88
2023/07/22 11:21:17;;;;;;;5.03;2.80;;;;;30.00;96872.00;;;;4996641;28;20700;-90
2023/07/22 11:24:09;;;;;;;4.70;2.73;;;;;30.30;96876.00;;;;4991762;28;20216;-90
2023/07/22 11:27:03;;;;;;;4.60;3.13;;;;;30.00;96871.00;;;;4989972;28;20232;-89
2023/07/22 11:29:52;;;;;;;6.13;3.13;;;;;29.90;96871.00;;;;4988849;28;20213;-90
2023/07/22 11:32:44;;;;;;;4.30;2.80;;;;;29.80;96868.00;;;;4987652;28;20205;-89
2023/07/22 11:35:33;;;;;;;6.23;2.93;;;;;29.60;96879.00;;;;4987354;28;20248;-89
2023/07/22 11:38:26;;;;;;;3.47;2.67;;;;;29.10;96877.00;;;;4987862;28;20212;-88
2023/07/22 11:41:15;;;;;;;5.37;3.03;;;;;29.10;96877.00;;;;4978949;28;20596;-88
2023/07/22 11:44:08;;;;;;;4.53;2.83;;;;;29.10;96861.00;;;;4986152;28;20201;-89
2023/07/22 11:46:59;;;;;;;3.43;2.63;;;;;28.90;96849.00;;;;4990024;28;20728;-89
2023/07/22 11:49:49;;;;;;;3.50;3.10;;;;;28.50;96850.00;;;;4987736;28;20215;-89
2023/07/22 11:52:38;;;;;;;4.30;3.90;;;;;28.30;96851.00;;;;4989334;28;20206;-89
2023/07/22 11:55:35;;;;;;;3.27;2.90;;;;;28.40;96854.00;;;;4988621;28;20223;-90
2023/07/22 11:58:28;;;;;;;4.43;3.17;;;;;28.60;96846.00;;;;4990907;28;20206;-90
2023/07/22 12:01:21;;;;;;;2.90;2.60;;;;;28.40;96856.00;;;;4990760;28;20213;-91
2023/07/22 12:04:12;;;;;;;3.93;3.20;;;;;28.40;96838.00;;;;4986812;28;20208;-91
2023/07/22 12:07:03;;;;;;;5.07;2.70;;;;;29.20;96837.00;;;;4985484;28;20858;-90
2023/07/22 12:09:54;;;;;;;3.80;2.77;;;;;29.20;96839.00;;;;4990023;28;20202;-90
2023/07/22 12:12:53;;;;;;;3.77;3.10;;;;;28.80;96844.00;;;;4988206;28;20205;-90
2023/07/22 12:16:01;;;;;;;4.13;3.13;;;;;28.70;96839.00;;;;4990873;28;20225;-92
2023/07/22 12:18:56;;;;;;;4.97;2.87;;;;;28.70;96841.00;;;;4986584;28;20265;-90
2023/07/22 12:21:45;;;;;;;4.13;3.07;;;;;28.40;96850.00;;;;4991242;28;20259;-90
2023/07/22 12:24:35;;;;;;;3.63;3.20;;;;;28.20;96853.00;;;;4989325;28;20243;-90
2023/07/22 12:27:24;;;;;;;5.90;3.33;;;;;28.40;96860.00;;;;4986438;28;20307;-91
2023/07/22 12:30:17;;;;;;;5.50;2.83;;;;;28.00;96861.00;;;;4989106;28;20208;-90
2023/07/22 12:33:10;;;;;;;2.80;2.50;;;;;27.70;96864.00;;;;4988317;28;20211;-89
2023/07/22 12:35:59;;;;;;;4.13;2.93;;;;;27.10;96860.00;;;;4990966;28;20282;-90
2023/07/22 12:38:48;;;;;;;3.53;2.97;;;;;27.50;96848.00;;;;4988032;28;20250;-90
2023/07/22 12:41:38;;;;;;;3.63;3.03;;;;;27.00;96836.00;;;;4988232;28;20199;-90
2023/07/22 12:44:28;;;;;;;5.57;4.10;;;;;26.50;96824.00;;;;4986205;28;20721;-92
2023/07/22 12:47:20;;;;;;;3.20;2.43;;;;;26.20;96821.00;;;;4987533;28;20221;-90
2023/07/22 12:50:10;;;;;;;5.93;3.30;;;;;26.20;96786.00;;;;4987473;28;20683;-91
2023/07/22 12:53:02;;;;;;;5.57;3.83;;;;;27.10;96808.00;;;;4986600;28;20208;-90
2023/07/22 12:55:52;;;;;;;4.87;2.87;;;;;26.70;96830.00;;;;4986019;28;20232;-92
2023/07/22 12:58:41;;;;;;;5.13;3.07;;;;;26.30;96820.00;;;;4992798;28;20677;-91
2023/07/22 13:01:31;;;;;;;3.67;2.80;;;;;26.70;96821.00;;;;4989522;28;20212;-91
2023/07/22 13:04:24;;;;;;;4.67;3.17;;;;;26.90;96826.00;;;;4988709;28;20208;-91
2023/07/22 13:07:16;;;;;;;7.10;4.60;;;;;27.10;96813.00;;;;4985749;28;20294;-92
2023/07/22 13:10:15;;;;;;;6.00;3.07;;;;;27.60;96804.00;;;;4987451;28;20209;-92
2023/07/22 13:13:04;;;;;;;3.00;2.53;;;;;27.90;96795.00;;;;4985804;28;20700;-92
2023/07/22 13:15:53;;;;;;;3.93;2.60;;;;;28.40;96797.00;;;;4985737;28;20234;-92
2023/07/22 13:18:43;;;;;;;3.80;2.77;;;;;28.10;96794.00;;;;4995690;28;20270;-92
2023/07/22 13:21:35;;;;;;;8.87;2.80;;;;;27.50;96787.00;;;;5002200;28;20205;-91
2023/07/22 13:24:27;;;;;;;3.33;2.60;;;;;27.60;96782.00;;;;5008370;28;20247;-92
2023/07/22 13:27:19;;;;;;;3.13;2.33;;;;;26.90;96780.00;;;;4989583;28;20232;-90
2023/07/22 13:30:15;;;;;;;3.37;2.77;;;;;27.00;96782.00;;;;4996013;28;20205;-93
2023/07/22 13:33:07;;;;;;;4.43;2.83;;;;;27.80;96786.00;;;;4992913;28;20209;-93
2023/07/22 13:36:04;;;;;;;3.53;2.70;;;;;27.80;96793.00;;;;4992269;28;20798;-90
2023/07/22 13:38:58;;;;;;;4.57;2.73;;;;;27.20;96798.00;;;;4991321;28;20885;-90
2023/07/22 13:41:47;;;;;;;5.07;2.27;;;;;27.40;96793.00;;;;4998037;28;20705;-90
2023/07/22 13:44:42;;;;;;;3.83;3.33;;;;;27.30;96795.00;;;;4991573;28;20209;-90
2023/07/22 13:47:37;;;;;;;4.57;3.37;;;;;27.30;96783.00;;;;4994215;28;20232;-91
2023/07/22 13:50:27;;;;;;;4.40;2.73;;;;;27.00;96784.00;;;;5003415;28;20973;-90
2023/07/22 13:53:21;;;;;;;3.63;2.83;;;;;26.80;96782.00;;;;4986445;28;20205;-90
2023/07/22 13:56:14;;;;;;;6.57;2.90;;;;;26.70;96784.00;;;;4998150;28;20628;-91
2023/07/22 13:59:12;;;;;;;3.83;2.57;;;;;26.40;96781.00;;;;4991067;28;20244;-89
2023/07/22 14:02:01;;;;;;;3.20;2.90;;;;;26.20;96799.00;;;;4992850;28;20204;-89
2023/07/22 14:04:54;;;;;;;7.97;3.00;;;;;26.00;96806.00;;;;4986822;28;20222;-90
2023/07/22 14:07:45;;;;;;;6.73;2.80;;;;;25.90;96797.00;;;;4993085;28;20233;-90
2023/07/22 14:10:37;;;;;;;4.53;2.60;;;;;25.50;96792.00;;;;5000319;28;20248;-90
2023/07/22 14:13:32;;;;;;;4.63;3.60;;;;;25.60;96796.00;;;;4994486;28;20210;-89
2023/07/22 14:16:28;;;;;;;5.67;2.83;;;;;25.40;96786.00;;;;4995238;28;20226;-91
2023/07/22 14:19:20;;;;;;;4.00;2.80;;;;;25.30;96796.00;;;;4996434;28;20281;-91
2023/07/22 14:22:15;;;;;;;4.90;2.67;;;;;25.20;96773.00;;;;4998117;28;20201;-90
2023/07/22 14:25:10;;;;;;;5.17;3.13;;;;;25.10;96773.00;;;;4999620;28;20234;-90
2023/07/22 14:28:05;;;;;;;2.83;2.37;;;;;24.90;96786.00;;;;5000872;28;20743;-89